Decoded Metar for CYYN (SWIFT CURRENT in SK, CANADA) (IATA:YYN) | Meteo·Mobile Aviation Weather
aviador You're here:

CYYN Decoded Metar

SWIFT CURRENT in SK, CANADA
Report Time2019-04-18 20:00:00
UTC Time2019-04-18 20:20:59
Flight Rules vfr VFR
Wind260° at 14 Gusting to 22 kt
W.Decomp.*RWY 22: 12.5 kt HW 6.4 kt RCW
RWY 30: 8.4 kt HW 11.2 kt LCW
Visibility9999 m
Phenomena:N/A
Clouds:N/A
Expected CloudBase > 8,400 ft AGL from Temp-Dew spread
CeilingNone
Temp15°C (ISA +5)
Dew Point-6°C (23% RH)
AAT7.3°C
QNH1017 hPa
Density Alt3,235 ft
Elevation2,684 ft
Report Wrong Elevation
Raw Report
CYYN 182000Z AUTO 26014G22KT 230V320 9SM CLR 15/M06 A3003 RMK
SLP184 DENSITY ALT 3200FT=

Extra information for CYYN:More info

Metar Taf Metar & Taf Last 4 Metars F.Rules Stats Wind Profile Meteogram Temp Stats Airport Information Weather charts Add Link Nearby VenuesMetar ALERT Operation Metar Decoded Social comments